createdAt,value
2022-10-06T00:00:05.142Z,1005
2022-10-06T00:03:05.264Z,1005
2022-10-06T00:06:05.081Z,1005
2022-10-06T00:09:05.101Z,1005
2022-10-06T00:12:05.080Z,1005
2022-10-06T00:15:05.094Z,1005
2022-10-06T00:18:05.164Z,1005
2022-10-06T00:21:05.065Z,1005
2022-10-06T00:24:05.146Z,1005
2022-10-06T00:27:05.109Z,1005
2022-10-06T00:30:05.136Z,1005
2022-10-06T00:33:05.106Z,1005
2022-10-06T00:36:05.186Z,1005
2022-10-06T00:39:05.119Z,1005
2022-10-06T00:42:05.132Z,1005
2022-10-06T00:45:05.125Z,1005
2022-10-06T00:48:05.098Z,1005
2022-10-06T00:51:05.099Z,1006
2022-10-06T00:54:05.478Z,1006
2022-10-06T00:57:05.082Z,1006
2022-10-06T01:00:05.113Z,1006
2022-10-06T01:03:05.310Z,1006
2022-10-06T01:06:05.095Z,1006
2022-10-06T01:09:05.121Z,1006
2022-10-06T01:12:05.081Z,1006
2022-10-06T01:15:05.123Z,1006
2022-10-06T01:18:05.109Z,1006
2022-10-06T01:21:05.220Z,1006
2022-10-06T01:24:05.134Z,1007
2022-10-06T01:27:05.154Z,1007
2022-10-06T01:30:05.140Z,1007
2022-10-06T01:33:05.116Z,1007
2022-10-06T01:36:05.092Z,1008
2022-10-06T01:39:05.206Z,1008
2022-10-06T01:42:05.194Z,1008
2022-10-06T01:45:05.132Z,1008
2022-10-06T01:48:05.065Z,1008
2022-10-06T01:51:05.116Z,1008
2022-10-06T01:54:05.136Z,1008
2022-10-06T01:57:05.163Z,1008
2022-10-06T02:00:05.156Z,1008
2022-10-06T02:03:05.085Z,1008
2022-10-06T02:06:05.536Z,1008
2022-10-06T02:09:05.159Z,1008
2022-10-06T02:12:05.177Z,1008
2022-10-06T02:15:05.168Z,1008
2022-10-06T02:18:05.185Z,1008
2022-10-06T02:21:05.145Z,1008
2022-10-06T02:24:05.255Z,1008
2022-10-06T02:27:05.111Z,1008
2022-10-06T02:30:05.124Z,1008
2022-10-06T02:33:05.070Z,1008
2022-10-06T02:36:05.084Z,1008
2022-10-06T02:39:05.114Z,1008
2022-10-06T02:42:05.052Z,1008
2022-10-06T02:45:05.088Z,1009
2022-10-06T02:48:05.070Z,1009
2022-10-06T02:51:05.157Z,1009
2022-10-06T02:54:05.221Z,1009
2022-10-06T02:57:05.112Z,1009
2022-10-06T03:00:05.154Z,1009
2022-10-06T03:03:05.319Z,1009
2022-10-06T03:06:05.097Z,1009
2022-10-06T03:09:05.110Z,1009
2022-10-06T03:12:05.144Z,1009
2022-10-06T03:15:05.095Z,1009
2022-10-06T03:18:05.134Z,1009
2022-10-06T03:21:05.095Z,1009
2022-10-06T03:24:05.117Z,1009
2022-10-06T03:27:05.047Z,1009
2022-10-06T03:30:05.301Z,1009
2022-10-06T03:33:05.048Z,1009
2022-10-06T03:36:05.080Z,1009
2022-10-06T03:39:05.255Z,1009
2022-10-06T03:42:05.086Z,1010
2022-10-06T03:45:05.092Z,1010
2022-10-06T03:48:05.132Z,1010
2022-10-06T03:51:05.069Z,1010
2022-10-06T03:54:05.201Z,1010
2022-10-06T03:57:05.062Z,1010
2022-10-06T04:00:05.280Z,1010
2022-10-06T04:03:05.151Z,1010
2022-10-06T04:06:05.339Z,1010
2022-10-06T04:09:05.109Z,1010
2022-10-06T04:12:05.160Z,1010
2022-10-06T04:15:05.166Z,1010
2022-10-06T04:18:05.108Z,1010
2022-10-06T04:21:05.052Z,1010
2022-10-06T04:24:05.168Z,1010
2022-10-06T04:27:05.097Z,1010
2022-10-06T04:30:05.159Z,1010
2022-10-06T04:33:05.091Z,1010
2022-10-06T04:36:05.065Z,1010
2022-10-06T04:39:05.088Z,1010
2022-10-06T04:42:05.111Z,1011
2022-10-06T04:45:05.175Z,1011
2022-10-06T04:48:05.108Z,1011
2022-10-06T04:51:05.090Z,1011
2022-10-06T04:54:05.085Z,1011
2022-10-06T04:57:05.123Z,1011
2022-10-06T05:00:17.390Z,1011
2022-10-06T05:03:05.102Z,1011
2022-10-06T05:06:05.138Z,1011
2022-10-06T05:09:05.139Z,1011
2022-10-06T05:12:05.155Z,1011
2022-10-06T05:15:05.079Z,1011
2022-10-06T05:18:05.133Z,1011
2022-10-06T05:21:11.301Z,1011
2022-10-06T05:24:05.443Z,1011
2022-10-06T05:27:06.700Z,1011
2022-10-06T05:30:05.319Z,1011
2022-10-06T05:33:05.066Z,1011
2022-10-06T05:36:05.149Z,1011
2022-10-06T05:39:05.162Z,1012
2022-10-06T05:42:05.124Z,1012
2022-10-06T05:45:05.149Z,1012
2022-10-06T05:48:05.078Z,1012
2022-10-06T05:51:05.116Z,1012
2022-10-06T05:54:05.136Z,1012
2022-10-06T05:57:05.260Z,1012
2022-10-06T06:00:05.209Z,1012
2022-10-06T06:03:05.378Z,1012
2022-10-06T06:06:05.651Z,1012
2022-10-06T06:09:05.170Z,1012
2022-10-06T06:12:05.210Z,1012
2022-10-06T06:15:05.187Z,1012
2022-10-06T06:18:05.095Z,1012
2022-10-06T06:21:05.122Z,1012
2022-10-06T06:24:05.086Z,1013
2022-10-06T06:27:05.159Z,1013
2022-10-06T06:30:05.172Z,1013
2022-10-06T06:33:05.112Z,1013
2022-10-06T06:36:05.087Z,1013
2022-10-06T06:39:05.157Z,1013
2022-10-06T06:42:05.212Z,1013
2022-10-06T06:45:05.162Z,1013
2022-10-06T06:48:05.149Z,1013
2022-10-06T06:51:05.184Z,1013
2022-10-06T06:54:05.221Z,1013
2022-10-06T06:57:05.111Z,1013
2022-10-06T07:00:05.218Z,1013
2022-10-06T07:03:05.129Z,1013
2022-10-06T07:06:05.154Z,1013
2022-10-06T07:09:05.124Z,1013
2022-10-06T07:12:05.145Z,1013
2022-10-06T07:15:05.475Z,1014
2022-10-06T07:18:05.193Z,1014
2022-10-06T07:21:05.161Z,1014
2022-10-06T07:24:05.100Z,1014
2022-10-06T07:27:05.131Z,1014
2022-10-06T07:30:05.177Z,1014
2022-10-06T07:33:05.115Z,1014
2022-10-06T07:36:05.116Z,1014
2022-10-06T07:39:05.176Z,1014
2022-10-06T07:42:05.191Z,1014
2022-10-06T07:45:05.147Z,1014
2022-10-06T07:48:05.331Z,1014
2022-10-06T07:51:05.189Z,1015
2022-10-06T07:54:05.071Z,1015
2022-10-06T07:57:05.214Z,1015
2022-10-06T08:00:08.008Z,1015
2022-10-06T08:03:05.402Z,1015
2022-10-06T08:06:05.132Z,1015
2022-10-06T08:09:05.116Z,1015
2022-10-06T08:12:05.255Z,1015
2022-10-06T08:15:11.955Z,1015
2022-10-06T08:18:27.114Z,1015
2022-10-06T08:21:05.111Z,1015
2022-10-06T08:24:05.181Z,1015
2022-10-06T08:27:05.175Z,1015
2022-10-06T08:30:06.134Z,1015
2022-10-06T08:33:05.149Z,1015
2022-10-06T08:36:05.112Z,1015
2022-10-06T08:39:05.262Z,1015
2022-10-06T08:42:05.157Z,1015
2022-10-06T08:45:05.151Z,1015
2022-10-06T08:48:05.202Z,1015
2022-10-06T08:51:05.188Z,1015
2022-10-06T08:54:05.154Z,1015
2022-10-06T08:57:05.120Z,1015
2022-10-06T09:00:05.184Z,1015
2022-10-06T09:03:05.228Z,1015
2022-10-06T09:06:05.169Z,1015
2022-10-06T09:09:05.198Z,1015
2022-10-06T09:12:05.268Z,1015
2022-10-06T09:15:05.196Z,1015
2022-10-06T09:18:05.207Z,1015
2022-10-06T09:21:05.239Z,1015
2022-10-06T09:24:05.167Z,1015
2022-10-06T09:27:05.179Z,1015
2022-10-06T09:30:05.257Z,1015
2022-10-06T09:33:05.135Z,1015
2022-10-06T09:36:05.143Z,1015
2022-10-06T09:39:05.340Z,1015
2022-10-06T09:42:05.343Z,1015
2022-10-06T09:45:05.136Z,1015
2022-10-06T09:48:05.130Z,1016
2022-10-06T09:51:05.074Z,1016
2022-10-06T09:54:05.211Z,1016
2022-10-06T09:57:05.178Z,1016
2022-10-06T10:00:05.193Z,1016
2022-10-06T10:03:05.465Z,1016
2022-10-06T10:06:05.123Z,1016
2022-10-06T10:09:05.211Z,1016
2022-10-06T10:12:05.348Z,1016
2022-10-06T10:15:05.153Z,1016
2022-10-06T10:18:05.417Z,1016
2022-10-06T10:21:05.153Z,1016
2022-10-06T10:24:05.205Z,1016
2022-10-06T10:27:05.243Z,1016
2022-10-06T10:30:05.301Z,1016
2022-10-06T10:33:05.163Z,1016
2022-10-06T10:36:05.230Z,1016
2022-10-06T10:39:05.078Z,1016
2022-10-06T10:42:05.252Z,1016
2022-10-06T10:45:05.285Z,1016
2022-10-06T10:48:05.164Z,1016
2022-10-06T10:51:05.203Z,1016
2022-10-06T10:54:05.173Z,1016
2022-10-06T10:57:05.129Z,1016
2022-10-06T11:00:05.233Z,1017
2022-10-06T11:06:05.157Z,1017
2022-10-06T11:09:05.113Z,1017
2022-10-06T11:12:05.254Z,1017
2022-10-06T11:15:06.115Z,1017
2022-10-06T11:18:05.302Z,1017
2022-10-06T11:21:05.107Z,1017
2022-10-06T11:24:05.175Z,1017
2022-10-06T11:27:05.195Z,1017
2022-10-06T11:30:05.838Z,1017
2022-10-06T11:33:05.175Z,1017
2022-10-06T11:36:05.172Z,1017
2022-10-06T11:39:05.222Z,1017
2022-10-06T11:42:05.250Z,1017
2022-10-06T11:45:06.163Z,1017
2022-10-06T11:48:05.170Z,1017
2022-10-06T11:51:05.124Z,1017
2022-10-06T11:54:05.273Z,1017
2022-10-06T11:57:05.185Z,1017
2022-10-06T12:00:05.288Z,1017
2022-10-06T12:03:05.730Z,1017
2022-10-06T12:06:05.180Z,1017
2022-10-06T12:09:05.178Z,1017
2022-10-06T12:12:05.203Z,1017
2022-10-06T12:18:05.264Z,1017
2022-10-06T12:21:05.119Z,1017
2022-10-06T12:24:05.430Z,1017
2022-10-06T12:27:05.184Z,1017
2022-10-06T12:30:06.698Z,1017
2022-10-06T12:33:05.188Z,1017
2022-10-06T12:36:05.213Z,1017
2022-10-06T12:39:05.201Z,1017
2022-10-06T12:42:05.161Z,1016
2022-10-06T12:45:06.125Z,1016
2022-10-06T12:48:05.182Z,1016
2022-10-06T12:51:05.129Z,1016
2022-10-06T12:54:05.169Z,1017
2022-10-06T12:57:05.123Z,1017
2022-10-06T13:00:05.299Z,1017
2022-10-06T13:03:05.130Z,1017
2022-10-06T13:06:05.126Z,1017
2022-10-06T13:09:05.213Z,1017
2022-10-06T13:12:05.140Z,1017
2022-10-06T13:15:05.841Z,1017
2022-10-06T13:18:05.184Z,1017
2022-10-06T13:21:05.157Z,1017
2022-10-06T13:24:05.163Z,1017
2022-10-06T13:27:05.153Z,1017
2022-10-06T13:30:06.023Z,1017
2022-10-06T13:33:05.152Z,1017
2022-10-06T13:36:05.227Z,1017
2022-10-06T13:39:05.192Z,1017
2022-10-06T13:42:05.184Z,1017
2022-10-06T13:45:05.297Z,1017
2022-10-06T13:48:05.109Z,1017
2022-10-06T13:51:05.293Z,1017
2022-10-06T13:54:05.187Z,1017
2022-10-06T13:57:05.185Z,1016
2022-10-06T14:00:06.347Z,1016
2022-10-06T14:03:05.615Z,1016
2022-10-06T14:06:05.149Z,1016
2022-10-06T14:09:05.183Z,1016
2022-10-06T14:12:05.169Z,1016
2022-10-06T14:15:06.117Z,1016
2022-10-06T14:18:05.217Z,1016
2022-10-06T14:21:05.165Z,1016
2022-10-06T14:24:12.404Z,1016
2022-10-06T14:27:05.151Z,1016
2022-10-06T14:30:06.452Z,1016
2022-10-06T14:33:05.179Z,1016
2022-10-06T14:36:05.169Z,1016
2022-10-06T14:39:05.206Z,1016
2022-10-06T14:42:05.143Z,1017
2022-10-06T14:45:05.997Z,1017
2022-10-06T14:48:05.138Z,1017
2022-10-06T14:51:05.170Z,1017
2022-10-06T14:54:05.138Z,1017
2022-10-06T14:57:05.162Z,1017
2022-10-06T15:00:06.451Z,1017
2022-10-06T15:03:05.542Z,1017
2022-10-06T15:06:05.154Z,1017
2022-10-06T15:09:05.137Z,1017
2022-10-06T15:12:05.128Z,1017
2022-10-06T15:15:05.165Z,1017
2022-10-06T15:18:05.145Z,1017
2022-10-06T15:21:05.185Z,1017
2022-10-06T15:24:05.180Z,1017
2022-10-06T15:27:05.216Z,1017
2022-10-06T15:30:05.206Z,1017
2022-10-06T15:33:05.169Z,1017
2022-10-06T15:36:05.151Z,1017
2022-10-06T15:39:05.187Z,1016
2022-10-06T15:42:06.240Z,1017
2022-10-06T15:45:12.099Z,1017
2022-10-06T15:48:05.500Z,1017
2022-10-06T15:51:05.159Z,1017
2022-10-06T15:54:05.266Z,1017
2022-10-06T15:57:05.088Z,1017
2022-10-06T16:00:05.178Z,1017
2022-10-06T16:03:05.462Z,1017
2022-10-06T16:06:05.195Z,1017
2022-10-06T16:09:05.240Z,1017
2022-10-06T16:12:05.129Z,1017
2022-10-06T16:15:05.137Z,1017
2022-10-06T16:18:05.145Z,1017
2022-10-06T16:21:05.149Z,1017
2022-10-06T16:24:05.193Z,1016
2022-10-06T16:27:05.153Z,1016
2022-10-06T16:30:05.240Z,1016
2022-10-06T16:33:05.109Z,1017
2022-10-06T16:36:05.115Z,1017
2022-10-06T16:39:05.152Z,1017
2022-10-06T16:42:05.169Z,1017
2022-10-06T16:45:05.241Z,1017
2022-10-06T16:48:05.115Z,1017
2022-10-06T16:51:05.123Z,1017
2022-10-06T16:54:05.099Z,1017
2022-10-06T16:57:05.123Z,1017
2022-10-06T17:00:05.062Z,1017
2022-10-06T17:03:05.139Z,1017
2022-10-06T17:06:05.123Z,1017
2022-10-06T17:09:05.107Z,1017
2022-10-06T17:12:05.116Z,1017
2022-10-06T17:15:05.061Z,1017
2022-10-06T17:18:05.140Z,1017
2022-10-06T17:21:40.316Z,1017
2022-10-06T17:24:05.158Z,1017
2022-10-06T17:27:05.086Z,1017
2022-10-06T17:30:05.122Z,1017
2022-10-06T17:33:05.126Z,1017
2022-10-06T17:36:05.092Z,1017
2022-10-06T17:39:05.155Z,1017
2022-10-06T17:42:05.106Z,1017
2022-10-06T17:45:05.109Z,1017
2022-10-06T17:48:05.124Z,1017
2022-10-06T17:51:05.120Z,1017
2022-10-06T17:54:05.098Z,1017
2022-10-06T17:57:05.122Z,1017
2022-10-06T18:00:05.123Z,1017
2022-10-06T18:03:05.109Z,1017
2022-10-06T18:06:05.116Z,1017
2022-10-06T18:09:05.093Z,1017
2022-10-06T18:12:05.120Z,1017
2022-10-06T18:15:05.083Z,1017
2022-10-06T18:18:05.100Z,1017
2022-10-06T18:21:05.067Z,1017
2022-10-06T18:24:05.075Z,1017
2022-10-06T18:27:05.170Z,1017
2022-10-06T18:30:05.130Z,1017
2022-10-06T18:36:19.214Z,1017
2022-10-06T18:39:05.115Z,1017
2022-10-06T18:42:05.126Z,1017
2022-10-06T18:45:05.120Z,1017
2022-10-06T18:48:05.064Z,1017
2022-10-06T18:51:05.076Z,1017
2022-10-06T18:54:05.161Z,1017
2022-10-06T18:57:05.037Z,1017
2022-10-06T19:00:05.136Z,1017
2022-10-06T19:03:05.057Z,1017
2022-10-06T19:06:05.141Z,1017
2022-10-06T19:09:05.060Z,1017
2022-10-06T19:12:05.121Z,1017
2022-10-06T19:15:05.067Z,1018
2022-10-06T19:18:05.113Z,1018
2022-10-06T19:21:10.872Z,1018
2022-10-06T19:24:05.118Z,1017
2022-10-06T19:27:05.090Z,1017
2022-10-06T19:30:05.164Z,1017
2022-10-06T19:33:05.138Z,1017
2022-10-06T19:36:05.096Z,1017
2022-10-06T19:39:05.109Z,1017
2022-10-06T19:42:05.080Z,1017
2022-10-06T19:45:05.085Z,1017
2022-10-06T19:48:05.091Z,1017
2022-10-06T19:51:05.092Z,1017
2022-10-06T19:54:05.072Z,1017
2022-10-06T19:57:10.263Z,1017
2022-10-06T20:00:05.188Z,1017
2022-10-06T20:03:05.045Z,1017
2022-10-06T20:06:05.113Z,1017
2022-10-06T20:09:05.090Z,1017
2022-10-06T20:12:05.122Z,1017
2022-10-06T20:15:05.077Z,1018
2022-10-06T20:18:05.112Z,1018
2022-10-06T20:21:05.576Z,1018
2022-10-06T20:24:05.120Z,1018
2022-10-06T20:27:05.153Z,1018
2022-10-06T20:30:05.209Z,1018
2022-10-06T20:33:05.042Z,1018
2022-10-06T20:36:05.089Z,1018
2022-10-06T20:39:05.131Z,1018
2022-10-06T20:42:05.097Z,1018
2022-10-06T20:45:05.210Z,1018
2022-10-06T20:48:05.129Z,1018
2022-10-06T20:51:05.116Z,1018
2022-10-06T20:54:05.130Z,1018
2022-10-06T20:57:05.034Z,1018
2022-10-06T21:00:05.160Z,1018
2022-10-06T21:03:05.574Z,1018
2022-10-06T21:06:05.453Z,1018
2022-10-06T21:09:05.287Z,1018
2022-10-06T21:12:05.281Z,1018
2022-10-06T21:15:05.241Z,1017
2022-10-06T21:18:05.293Z,1017
2022-10-06T21:21:05.268Z,1017
2022-10-06T21:24:05.257Z,1017
2022-10-06T21:27:05.293Z,1017
2022-10-06T21:30:05.318Z,1017
2022-10-06T21:33:05.260Z,1017
2022-10-06T21:36:05.263Z,1017
2022-10-06T21:39:05.311Z,1017
2022-10-06T21:42:05.288Z,1017
2022-10-06T21:45:05.227Z,1017
2022-10-06T21:48:05.292Z,1017
2022-10-06T21:51:05.258Z,1017
2022-10-06T21:54:05.297Z,1017
2022-10-06T21:57:05.233Z,1017
2022-10-06T22:00:06.333Z,1017
2022-10-06T22:03:05.518Z,1018
2022-10-06T22:06:05.289Z,1018
2022-10-06T22:09:05.335Z,1018
2022-10-06T22:12:05.209Z,1018
2022-10-06T22:15:05.243Z,1018
2022-10-06T22:18:05.271Z,1017
2022-10-06T22:21:05.263Z,1017
2022-10-06T22:24:05.273Z,1017
2022-10-06T22:27:05.306Z,1017
2022-10-06T22:30:05.251Z,1017
2022-10-06T22:33:05.294Z,1017
2022-10-06T22:36:05.269Z,1017
2022-10-06T22:39:05.302Z,1017
2022-10-06T22:42:05.257Z,1017
2022-10-06T22:45:05.288Z,1017
2022-10-06T22:48:05.250Z,1017
2022-10-06T22:51:05.275Z,1017
2022-10-06T22:54:05.282Z,1017
2022-10-06T22:57:05.221Z,1017
2022-10-06T23:00:05.378Z,1017
2022-10-06T23:03:05.452Z,1017
2022-10-06T23:06:05.272Z,1017
2022-10-06T23:09:05.271Z,1017
2022-10-06T23:12:05.270Z,1017
2022-10-06T23:15:05.253Z,1017
2022-10-06T23:18:05.298Z,1017
2022-10-06T23:21:05.246Z,1017
2022-10-06T23:24:05.301Z,1017
2022-10-06T23:27:05.266Z,1017
2022-10-06T23:30:05.250Z,1017
2022-10-06T23:33:05.236Z,1017
2022-10-06T23:36:05.284Z,1017
2022-10-06T23:39:05.253Z,1017
2022-10-06T23:42:05.217Z,1017
2022-10-06T23:45:05.301Z,1017
2022-10-06T23:48:05.289Z,1017
2022-10-06T23:51:05.319Z,1017
2022-10-06T23:54:05.310Z,1017
2022-10-06T23:57:05.258Z,1017
